createdAt,value
2017-06-24T09:18:52.502Z,0
2017-06-24T09:19:53.889Z,0
2017-06-24T09:21:16.389Z,0
2017-06-24T09:22:17.774Z,0
2017-06-24T09:23:39.240Z,0
2017-06-24T09:24:40.632Z,0
2017-06-24T09:26:03.440Z,0
2017-06-24T09:27:04.822Z,0
2017-06-24T09:28:27.310Z,0
2017-06-24T09:29:28.693Z,0
2017-06-24T09:30:50.186Z,0
2017-06-24T09:31:52.182Z,0
2017-06-24T09:33:13.951Z,0
2017-06-24T09:34:15.333Z,0
2017-06-24T09:35:36.830Z,0
2017-06-24T09:36:38.215Z,0
2017-06-24T09:37:59.699Z,0
2017-06-24T09:39:01.084Z,0
2017-06-24T09:40:22.790Z,0
2017-06-24T09:41:24.966Z,0
2017-06-24T09:42:46.452Z,0
2017-06-24T09:43:47.837Z,0
2017-06-24T09:45:09.399Z,0
2017-06-24T09:46:10.797Z,5
2017-06-24T09:47:32.578Z,5
2017-06-24T09:48:33.973Z,5
2017-06-24T12:36:40.203Z,100
2017-06-24T12:37:41.598Z,160
2017-06-24T12:39:03.086Z,100
2017-06-24T12:40:04.482Z,95
2017-06-24T12:41:25.961Z,90
2017-06-24T12:42:27.366Z,90
2017-06-24T12:43:50.170Z,105
2017-06-24T12:44:51.555Z,100
2017-06-24T12:46:13.042Z,125
2017-06-24T12:47:15.015Z,115
2017-06-24T12:48:37.003Z,85
2017-06-24T12:49:38.396Z,80
2017-06-24T12:51:00.280Z,70
2017-06-24T12:52:02.624Z,75
2017-06-24T12:53:24.128Z,70
2017-06-24T12:54:25.514Z,85
2017-06-24T12:55:47.006Z,120
2017-06-24T12:56:48.403Z,135
2017-06-24T12:58:10.895Z,85
2017-06-24T12:59:12.293Z,75
2017-06-24T13:00:33.788Z,120
2017-06-24T13:01:35.187Z,110
2017-06-24T13:02:56.674Z,85
2017-06-24T13:03:58.068Z,90
2017-06-24T13:05:21.554Z,100
2017-06-24T13:06:22.956Z,95
2017-06-24T13:07:44.450Z,110
2017-06-24T13:08:45.854Z,115
2017-06-24T13:10:08.356Z,105
2017-06-24T13:11:09.751Z,95
2017-06-24T13:12:31.628Z,80
2017-06-24T13:13:33.010Z,95
2017-06-24T13:14:55.109Z,80
2017-06-24T13:15:56.509Z,95
2017-06-24T13:17:19.771Z,80
2017-06-24T13:18:20.759Z,75
2017-06-24T13:19:42.665Z,75
2017-06-24T13:20:44.097Z,90
2017-06-24T13:22:05.594Z,100
2017-06-24T13:23:07.001Z,100
2017-06-24T13:24:28.497Z,110
2017-06-24T13:25:29.902Z,85
2017-06-24T13:26:51.845Z,100
2017-06-24T13:27:53.236Z,105
2017-06-24T13:29:14.768Z,95
2017-06-24T13:30:16.903Z,85
2017-06-24T13:31:38.943Z,75
2017-06-24T13:32:40.339Z,70
2017-06-24T13:34:02.252Z,80
2017-06-24T13:35:03.653Z,85
2017-06-24T13:36:25.232Z,80
2017-06-24T13:37:26.633Z,85
2017-06-24T13:38:49.133Z,85
2017-06-24T13:39:50.527Z,95
2017-06-24T13:41:12.317Z,75
2017-06-24T13:42:13.715Z,60
2017-06-24T13:43:35.898Z,65
2017-06-24T13:44:38.082Z,70
2017-06-24T13:46:00.573Z,70
2017-06-24T13:47:01.961Z,65
2017-06-24T13:48:27.492Z,75
2017-06-24T13:49:28.883Z,75
2017-06-24T13:50:50.384Z,90
2017-06-24T13:51:51.776Z,85
2017-06-24T13:53:13.261Z,70
2017-06-24T13:54:14.663Z,75
2017-06-24T13:55:36.520Z,65
2017-06-24T13:56:37.923Z,100
2017-06-24T13:58:00.411Z,110
2017-06-24T13:59:03.294Z,90
2017-06-24T14:00:25.608Z,85
2017-06-24T14:01:27.008Z,75
2017-06-24T14:02:49.440Z,80
2017-06-24T14:03:50.916Z,95
2017-06-24T14:05:12.404Z,70
2017-06-24T14:06:14.493Z,55
2017-06-24T14:07:36.014Z,50
2017-06-24T14:08:37.405Z,80
2017-06-24T14:09:59.765Z,90
2017-06-24T14:11:01.165Z,75
2017-06-24T14:12:22.663Z,70
2017-06-24T14:13:24.063Z,65
2017-06-24T14:14:45.554Z,95
2017-06-24T14:15:46.942Z,75
2017-06-24T14:17:08.874Z,90
2017-06-24T14:18:10.261Z,90
2017-06-24T14:19:31.774Z,90
2017-06-24T14:20:34.029Z,85
2017-06-24T14:21:58.641Z,60
2017-06-24T14:46:32.334Z,70
2017-06-24T14:47:35.117Z,75
2017-06-24T14:48:56.957Z,110
2017-06-24T14:49:58.918Z,90
2017-06-24T14:51:21.416Z,65
2017-06-24T14:52:22.820Z,75
2017-06-24T14:53:44.734Z,75
2017-06-24T14:54:46.602Z,60
2017-06-24T14:56:08.082Z,80
2017-06-24T14:57:09.492Z,75
2017-06-24T14:58:31.992Z,70
2017-06-24T14:59:33.380Z,60
2017-06-24T15:00:55.237Z,55
2017-06-24T15:01:56.625Z,65
2017-06-24T15:03:18.596Z,65
2017-06-24T15:04:19.994Z,80
2017-06-24T15:05:44.032Z,90
2017-06-24T15:18:14.865Z,80
2017-06-24T15:19:16.794Z,65
2017-06-24T15:20:38.276Z,45
2017-06-24T15:21:39.697Z,95
2017-06-24T15:23:01.185Z,75
2017-06-24T15:24:02.576Z,85
2017-06-24T15:25:24.440Z,85
2017-06-24T15:26:25.826Z,85
2017-06-24T15:27:47.316Z,90
2017-06-24T15:28:48.709Z,105
2017-06-24T15:30:10.210Z,90
2017-06-24T15:31:11.609Z,95
2017-06-24T15:32:34.019Z,80
2017-06-24T15:33:35.406Z,80
2017-06-24T15:34:57.613Z,90
2017-06-24T15:35:59.000Z,80
2017-06-24T15:37:20.500Z,85
2017-06-24T15:38:21.890Z,65
2017-06-24T15:39:43.576Z,65
2017-06-24T15:40:45.524Z,90
2017-06-24T15:42:07.010Z,100
2017-06-24T15:43:08.414Z,125
2017-06-24T15:44:29.893Z,80
2017-06-24T15:45:31.291Z,135
2017-06-24T15:46:53.516Z,120
2017-06-24T15:47:54.888Z,75
2017-06-24T15:49:16.544Z,65
2017-06-24T15:50:17.931Z,65
2017-06-24T15:51:39.640Z,55
2017-06-24T15:52:41.043Z,40
2017-06-24T15:54:03.182Z,45
2017-06-24T15:55:04.571Z,45
2017-06-24T15:56:26.263Z,40
2017-06-24T15:57:27.653Z,50
2017-06-24T15:58:50.102Z,50
2017-06-24T15:59:51.503Z,45
2017-06-24T16:01:14.334Z,55
2017-06-24T16:02:15.729Z,60
2017-06-24T16:03:37.271Z,75
2017-06-24T16:04:38.661Z,75
2017-06-24T16:06:00.433Z,70
2017-06-24T16:07:01.821Z,70
2017-06-24T16:08:23.800Z,40
2017-06-24T16:09:25.209Z,45
2017-06-24T16:10:46.753Z,50
2017-06-24T16:11:48.143Z,55
2017-06-24T16:13:09.909Z,40
2017-06-24T16:14:11.298Z,40
2017-06-24T16:15:33.267Z,50
2017-06-24T17:07:10.574Z,15
2017-06-24T17:08:11.961Z,15
2017-06-24T17:09:34.054Z,15
2017-06-24T17:10:34.796Z,15
2017-06-24T17:11:57.532Z,25
2017-06-24T17:13:00.727Z,30
2017-06-24T17:14:22.547Z,25
2017-06-24T17:15:23.928Z,20
2017-06-24T17:16:45.690Z,15
2017-06-24T17:17:47.076Z,20
2017-06-24T17:19:08.852Z,25
2017-06-24T17:20:10.237Z,25
2017-06-24T17:21:32.320Z,25
2017-06-24T17:22:33.712Z,30
2017-06-24T17:23:55.479Z,35
2017-06-24T17:24:56.866Z,45
2017-06-24T17:26:18.625Z,35
2017-06-24T17:27:20.019Z,35
2017-06-24T17:28:42.100Z,30
2017-06-24T17:29:43.498Z,35
2017-06-24T17:31:05.249Z,50
2017-06-24T17:32:06.648Z,45
2017-06-24T17:33:28.421Z,55
2017-06-24T17:34:29.809Z,45
2017-06-24T17:35:52.629Z,30
2017-06-24T17:36:54.026Z,30
2017-06-24T17:38:16.134Z,30
2017-06-24T17:39:17.535Z,25
2017-06-24T17:40:39.116Z,40
2017-06-24T17:41:40.505Z,30
2017-06-24T17:43:02.602Z,40
2017-06-24T17:44:03.993Z,50
2017-06-24T17:45:25.741Z,40
2017-06-24T17:46:27.144Z,40
2017-06-24T17:47:48.888Z,35
2017-06-24T17:48:50.275Z,20
2017-06-24T17:50:12.383Z,15
2017-06-24T17:51:13.780Z,15
2017-06-24T17:52:35.525Z,15
2017-06-24T17:53:36.910Z,15
2017-06-24T17:54:59.363Z,15
2017-06-24T17:56:00.748Z,15
2017-06-24T17:57:22.825Z,15
2017-06-24T17:58:24.215Z,10
2017-06-24T17:59:45.913Z,10
2017-06-24T18:00:47.303Z,15
2017-06-24T18:02:09.998Z,10
2017-06-24T18:03:11.393Z,10
2017-06-24T18:04:34.401Z,10
2017-06-24T18:05:36.334Z,10
2017-06-24T18:06:57.846Z,10
2017-06-24T18:07:59.241Z,10
2017-06-24T18:09:20.998Z,10
2017-06-24T18:10:22.392Z,10
2017-06-24T18:11:45.206Z,10
2017-06-24T18:12:46.586Z,20
2017-06-24T18:14:09.146Z,25
2017-06-24T18:15:10.535Z,15
2017-06-24T18:16:33.236Z,30
2017-06-24T18:17:34.634Z,25
2017-06-24T18:18:56.816Z,25
2017-06-24T18:19:58.212Z,20
2017-06-24T18:21:19.861Z,15
2017-06-24T18:22:21.270Z,20
2017-06-24T18:23:43.014Z,20
